createdAt,value
2022-09-18T00:01:33.518Z,16.37
2022-09-18T00:04:04.626Z,16.35
2022-09-18T00:06:36.578Z,16.33
2022-09-18T00:09:06.935Z,16.29
2022-09-18T00:11:40.830Z,16.27
2022-09-18T00:14:11.719Z,16.24
2022-09-18T00:16:39.826Z,16.23
2022-09-18T00:19:07.739Z,16.21
2022-09-18T00:21:37.648Z,16.18
2022-09-18T00:24:07.107Z,16.21
2022-09-18T00:26:35.718Z,16.19
2022-09-18T00:29:03.963Z,16.18
2022-09-18T00:31:35.672Z,16.20
2022-09-18T00:34:06.345Z,16.20
2022-09-18T00:36:35.729Z,16.19
2022-09-18T00:39:04.137Z,16.17
2022-09-18T00:41:34.413Z,16.18
2022-09-18T00:44:32.745Z,16.18
2022-09-18T00:47:12.574Z,16.14
2022-09-18T00:50:05.040Z,16.09
2022-09-18T00:52:49.648Z,16.06
2022-09-18T00:55:22.634Z,15.99
2022-09-18T00:57:54.814Z,16.05
2022-09-18T01:00:23.620Z,16.05
2022-09-18T01:02:51.709Z,16.03
2022-09-18T01:05:24.828Z,15.99
2022-09-18T01:07:58.409Z,16.01
2022-09-18T01:10:33.773Z,15.95
2022-09-18T01:13:05.457Z,15.97
2022-09-18T01:15:54.991Z,15.94
2022-09-18T01:18:41.447Z,15.82
2022-09-18T01:21:14.857Z,15.90
2022-09-18T01:24:03.711Z,15.89
2022-09-18T01:26:45.713Z,15.87
2022-09-18T01:29:31.561Z,15.86
2022-09-18T01:32:26.536Z,15.85
2022-09-18T01:35:39.880Z,15.82
2022-09-18T01:38:34.351Z,15.78
2022-09-18T01:41:12.529Z,15.81
2022-09-18T01:43:44.677Z,15.80
2022-09-18T01:46:16.872Z,15.80
2022-09-18T01:49:14.898Z,15.81
2022-09-18T01:51:50.220Z,15.81
2022-09-18T01:54:31.727Z,15.78
2022-09-18T01:57:11.121Z,15.73
2022-09-18T01:59:47.182Z,15.76
2022-09-18T02:02:32.805Z,15.72
2022-09-18T02:05:02.828Z,15.74
2022-09-18T02:07:45.884Z,15.74
2022-09-18T02:10:13.933Z,15.71
2022-09-18T02:12:44.339Z,15.68
2022-09-18T02:15:15.038Z,15.66
2022-09-18T02:17:59.305Z,15.66
2022-09-18T02:20:39.952Z,15.65
2022-09-18T02:23:09.444Z,15.66
2022-09-18T02:25:42.423Z,15.66
2022-09-18T02:28:13.690Z,15.68
2022-09-18T02:30:42.781Z,15.67
2022-09-18T02:33:29.589Z,15.68
2022-09-18T02:36:21.677Z,15.67
2022-09-18T02:39:16.938Z,15.69
2022-09-18T02:41:59.434Z,15.69
2022-09-18T02:44:33.606Z,15.72
2022-09-18T02:47:26.331Z,15.67
2022-09-18T02:49:59.511Z,15.70
2022-09-18T02:52:35.967Z,15.71
2022-09-18T02:55:16.755Z,15.69
2022-09-18T02:57:50.347Z,15.74
2022-09-18T03:00:19.068Z,15.78
2022-09-18T03:02:51.133Z,15.91
2022-09-18T03:05:31.231Z,16.09
2022-09-18T03:08:00.617Z,16.32
2022-09-18T03:10:29.896Z,16.63
2022-09-18T03:12:57.871Z,16.95
2022-09-18T03:15:28.163Z,17.19
2022-09-18T03:17:57.055Z,17.35
2022-09-18T03:20:24.569Z,17.34
2022-09-18T03:22:52.193Z,17.24
2022-09-18T03:25:19.977Z,17.11
2022-09-18T03:27:47.598Z,17.01
2022-09-18T03:30:24.585Z,16.99
2022-09-18T03:32:52.089Z,17.08
2022-09-18T03:35:20.154Z,17.20
2022-09-18T03:37:49.128Z,17.42
2022-09-18T03:40:21.514Z,17.70
2022-09-18T03:42:51.098Z,18.13
2022-09-18T03:45:18.667Z,18.64
2022-09-18T03:47:47.119Z,19.17
2022-09-18T03:50:15.449Z,19.76
2022-09-18T03:52:45.657Z,20.37
2022-09-18T03:55:42.798Z,21.12
2022-09-18T03:58:28.592Z,21.83
2022-09-18T04:01:01.976Z,22.42
2022-09-18T04:03:38.962Z,22.73
2022-09-18T04:06:26.330Z,22.90
2022-09-18T04:09:13.969Z,23.11
2022-09-18T04:11:49.403Z,23.28
2022-09-18T04:14:16.841Z,23.49
2022-09-18T04:16:45.833Z,23.69
2022-09-18T04:19:13.335Z,23.66
2022-09-18T04:21:40.928Z,23.33
2022-09-18T04:24:08.742Z,23.36
2022-09-18T04:26:37.043Z,23.37
2022-09-18T04:29:05.647Z,23.15
2022-09-18T04:31:37.143Z,22.72
2022-09-18T04:34:08.732Z,22.47
2022-09-18T04:36:36.472Z,22.60
2022-09-18T04:39:04.642Z,22.88
2022-09-18T04:41:32.224Z,23.25
2022-09-18T04:44:00.160Z,23.56
2022-09-18T04:46:27.705Z,23.94
2022-09-18T04:48:55.485Z,24.23
2022-09-18T04:51:28.509Z,24.74
2022-09-18T04:53:56.166Z,25.26
2022-09-18T04:56:24.708Z,25.73
2022-09-18T04:58:53.506Z,26.25
2022-09-18T05:01:21.059Z,26.67
2022-09-18T05:03:48.856Z,27.10
2022-09-18T05:06:25.295Z,27.58
2022-09-18T05:08:53.463Z,27.98
2022-09-18T05:11:25.122Z,28.38
2022-09-18T05:13:56.962Z,28.46
2022-09-18T05:16:27.819Z,28.71
2022-09-18T05:19:21.355Z,29.04
2022-09-18T05:21:50.687Z,29.22
2022-09-18T05:24:19.207Z,29.14
2022-09-18T05:26:48.831Z,29.12
2022-09-18T05:29:20.340Z,29.34
2022-09-18T05:31:49.071Z,29.74
2022-09-18T05:34:17.099Z,30.06
2022-09-18T05:36:46.590Z,30.35
2022-09-18T05:39:17.448Z,30.63
2022-09-18T05:41:48.539Z,30.96
2022-09-18T05:44:16.151Z,31.12
2022-09-18T05:46:43.803Z,31.38
2022-09-18T05:49:11.336Z,31.74
2022-09-18T05:51:39.383Z,31.79
2022-09-18T05:54:07.035Z,31.82
2022-09-18T05:56:42.881Z,31.97
2022-09-18T05:59:11.598Z,32.21
2022-09-18T06:01:42.569Z,32.31
2022-09-18T06:04:12.559Z,32.54
2022-09-18T06:06:52.801Z,32.73
2022-09-18T06:09:20.379Z,32.89
2022-09-18T06:11:48.727Z,33.05
2022-09-18T06:14:17.493Z,33.09
2022-09-18T06:16:47.228Z,32.99
2022-09-18T06:19:14.791Z,32.84
2022-09-18T06:21:44.941Z,32.81
2022-09-18T06:24:16.199Z,32.95
2022-09-18T06:26:58.445Z,33.13
2022-09-18T06:29:27.678Z,33.37
2022-09-18T06:32:04.525Z,33.34
2022-09-18T06:34:37.990Z,33.19
2022-09-18T06:37:10.439Z,33.05
2022-09-18T06:39:44.183Z,33.16
2022-09-18T06:42:34.790Z,33.34
2022-09-18T06:45:13.744Z,33.40
2022-09-18T06:47:41.611Z,33.61
2022-09-18T06:50:09.864Z,33.78
2022-09-18T06:52:37.935Z,33.71
2022-09-18T06:55:06.489Z,33.88
2022-09-18T06:57:34.438Z,33.75
2022-09-18T07:00:02.151Z,33.52
2022-09-18T07:02:37.279Z,33.09
2022-09-18T07:05:27.782Z,32.95
2022-09-18T07:07:55.321Z,32.95
2022-09-18T07:10:24.804Z,33.24
2022-09-18T07:12:59.454Z,33.44
2022-09-18T07:15:29.427Z,33.54
2022-09-18T07:17:58.621Z,33.59
2022-09-18T07:20:27.083Z,33.38
2022-09-18T07:22:56.972Z,33.45
2022-09-18T07:25:36.742Z,33.49
2022-09-18T07:28:08.213Z,33.82
2022-09-18T07:30:41.745Z,33.99
2022-09-18T07:33:10.576Z,34.00
2022-09-18T07:35:44.500Z,34.12
2022-09-18T07:38:14.081Z,34.32
2022-09-18T07:40:53.979Z,34.45
2022-09-18T07:43:30.333Z,34.84
2022-09-18T07:45:59.711Z,34.96
2022-09-18T07:48:30.066Z,35.16
2022-09-18T07:51:06.841Z,35.04
2022-09-18T07:53:37.775Z,34.89
2022-09-18T07:56:10.534Z,34.10
2022-09-18T07:58:38.814Z,33.95
2022-09-18T08:01:12.121Z,34.14
2022-09-18T08:03:45.165Z,34.56
2022-09-18T08:06:13.542Z,34.68
2022-09-18T08:08:55.035Z,34.48
2022-09-18T08:11:36.288Z,34.24
2022-09-18T08:14:29.064Z,33.94
2022-09-18T08:17:21.606Z,33.26
2022-09-18T08:20:15.385Z,32.72
2022-09-18T08:22:51.141Z,32.29
2022-09-18T08:25:25.295Z,31.80
2022-09-18T08:27:53.148Z,31.36
2022-09-18T08:30:46.475Z,30.84
2022-09-18T08:33:14.042Z,30.49
2022-09-18T08:35:41.971Z,30.16
2022-09-18T08:38:23.697Z,30.36
2022-09-18T08:41:43.584Z,31.04
2022-09-18T08:44:24.531Z,31.16
2022-09-18T08:47:05.488Z,31.14
2022-09-18T08:49:39.995Z,30.57
2022-09-18T08:52:29.386Z,30.21
2022-09-18T08:55:32.553Z,29.53
2022-09-18T08:58:50.953Z,29.12
2022-09-18T09:01:20.244Z,28.89
2022-09-18T09:04:07.722Z,28.60
2022-09-18T09:06:48.493Z,28.56
2022-09-18T09:10:00.863Z,28.70
2022-09-18T09:12:54.732Z,28.95
2022-09-18T09:15:48.110Z,29.19
2022-09-18T09:18:18.222Z,29.65
2022-09-18T09:20:53.796Z,30.19
2022-09-18T09:23:49.896Z,30.38
2022-09-18T09:26:41.708Z,30.12
2022-09-18T09:29:30.600Z,29.89
2022-09-18T09:32:26.205Z,29.67
2022-09-18T09:35:26.779Z,29.52
2022-09-18T09:38:48.124Z,29.72
2022-09-18T09:41:37.589Z,30.20
2022-09-18T09:44:34.177Z,30.88
2022-09-18T09:47:07.441Z,31.20
2022-09-18T09:49:57.519Z,31.57
2022-09-18T09:52:27.449Z,31.70
2022-09-18T09:55:14.495Z,31.85
2022-09-18T09:58:15.628Z,31.87
2022-09-18T10:01:11.710Z,32.04
2022-09-18T10:04:24.139Z,31.90
2022-09-18T10:07:13.520Z,31.77
2022-09-18T10:09:54.777Z,32.14
2022-09-18T10:12:48.083Z,32.44
2022-09-18T10:15:24.867Z,32.33
2022-09-18T10:17:57.316Z,32.16
2022-09-18T10:20:31.787Z,32.10
2022-09-18T10:23:10.308Z,32.17
2022-09-18T10:25:46.559Z,31.92
2022-09-18T10:28:15.113Z,31.45
2022-09-18T10:31:04.528Z,30.90
2022-09-18T10:33:42.237Z,30.59
2022-09-18T10:36:33.571Z,30.29
2022-09-18T10:39:19.102Z,30.19
2022-09-18T10:41:49.179Z,30.16
2022-09-18T10:44:48.871Z,30.14
2022-09-18T10:47:27.092Z,29.92
2022-09-18T10:50:11.657Z,29.85
2022-09-18T10:52:43.724Z,29.79
2022-09-18T10:55:25.967Z,29.85
2022-09-18T10:58:00.223Z,30.06
2022-09-18T11:00:30.201Z,30.11
2022-09-18T11:03:15.773Z,30.05
2022-09-18T11:05:57.711Z,29.94
2022-09-18T11:08:34.452Z,29.95
2022-09-18T11:11:34.495Z,29.87
2022-09-18T11:14:25.259Z,29.78
2022-09-18T11:17:22.663Z,29.60
2022-09-18T11:19:52.878Z,29.54
2022-09-18T11:22:32.402Z,29.54
2022-09-18T11:25:08.378Z,29.57
2022-09-18T11:27:49.947Z,29.58
2022-09-18T11:30:29.862Z,29.56
2022-09-18T11:33:21.734Z,29.58
2022-09-18T11:35:56.682Z,29.56
2022-09-18T11:38:24.740Z,29.49
2022-09-18T11:40:54.653Z,29.44
2022-09-18T11:43:30.039Z,29.44
2022-09-18T11:45:58.907Z,29.48
2022-09-18T11:48:36.650Z,29.53
2022-09-18T11:51:13.496Z,29.58
2022-09-18T11:53:49.622Z,29.68
2022-09-18T11:56:32.396Z,29.62
2022-09-18T11:59:07.863Z,29.66
2022-09-18T12:01:46.595Z,29.53
2022-09-18T12:04:21.969Z,29.46
2022-09-18T12:07:03.753Z,29.42
2022-09-18T12:09:52.912Z,29.42
2022-09-18T12:12:28.573Z,29.39
2022-09-18T12:15:07.097Z,29.41
2022-09-18T12:22:55.180Z,29.34
2022-09-18T12:25:34.178Z,29.31
2022-09-18T12:28:36.558Z,29.31
2022-09-18T12:31:28.383Z,29.24
2022-09-18T12:34:31.006Z,29.16
2022-09-18T12:37:17.106Z,29.13
2022-09-18T12:40:04.415Z,29.16
2022-09-18T12:43:01.287Z,29.19
2022-09-18T12:45:40.671Z,29.22
2022-09-18T12:48:37.569Z,29.19
2022-09-18T12:51:19.170Z,29.13
2022-09-18T12:54:08.287Z,29.07
2022-09-18T12:56:56.425Z,29.05
2022-09-18T12:59:47.830Z,29.02
2022-09-18T13:02:54.927Z,28.97
2022-09-18T13:05:47.460Z,28.93
2022-09-18T13:08:38.823Z,28.92
2022-09-18T13:11:29.004Z,28.94
2022-09-18T13:14:02.123Z,28.88
2022-09-18T13:17:06.211Z,28.86
2022-09-18T13:19:42.422Z,28.82
2022-09-18T13:22:16.984Z,28.79
2022-09-18T13:24:49.987Z,28.75
2022-09-18T13:27:21.384Z,28.71
2022-09-18T13:29:52.014Z,28.70
2022-09-18T13:32:26.048Z,28.68
2022-09-18T13:35:00.474Z,28.66
2022-09-18T13:37:32.149Z,28.64
2022-09-18T13:40:10.969Z,28.63
2022-09-18T13:42:41.772Z,28.58
2022-09-18T13:45:27.171Z,28.58
2022-09-18T13:48:06.805Z,28.52
2022-09-18T13:50:48.033Z,28.48
2022-09-18T13:53:47.352Z,28.41
2022-09-18T13:56:17.167Z,28.37
2022-09-18T13:58:54.612Z,28.33
2022-09-18T14:01:40.850Z,28.29
2022-09-18T14:04:40.112Z,28.24
2022-09-18T14:07:17.095Z,28.16
2022-09-18T14:09:56.022Z,28.11
2022-09-18T14:12:24.466Z,28.03
2022-09-18T14:15:22.115Z,27.98
2022-09-18T14:18:17.695Z,27.89
2022-09-18T14:20:51.799Z,27.80
2022-09-18T14:23:37.209Z,27.74
2022-09-18T14:26:32.160Z,27.65
2022-09-18T14:29:12.449Z,27.56
2022-09-18T14:31:47.803Z,27.48
2022-09-18T14:34:24.814Z,27.43
2022-09-18T14:36:55.484Z,27.37
2022-09-18T14:39:34.786Z,27.29
2022-09-18T14:42:14.200Z,27.24
2022-09-18T14:44:49.918Z,27.16
2022-09-18T14:47:26.166Z,27.08
2022-09-18T14:49:54.205Z,26.99
2022-09-18T14:52:41.542Z,26.90
2022-09-18T14:55:17.595Z,26.81
2022-09-18T14:57:49.538Z,26.73
2022-09-18T15:00:24.117Z,26.64
2022-09-18T15:02:56.648Z,26.54
2022-09-18T15:05:27.421Z,26.46
2022-09-18T15:08:08.480Z,26.35
2022-09-18T15:10:40.233Z,26.28
2022-09-18T15:13:09.982Z,26.21
2022-09-18T15:15:40.304Z,26.12
2022-09-18T15:18:27.696Z,26.05
2022-09-18T15:20:58.159Z,25.97
2022-09-18T15:23:31.200Z,25.92
2022-09-18T15:26:03.014Z,25.85
2022-09-18T15:28:34.901Z,25.78
2022-09-18T15:31:09.215Z,25.72
2022-09-18T15:33:40.783Z,25.63
2022-09-18T15:36:18.476Z,25.58
2022-09-18T15:38:48.479Z,25.51
2022-09-18T15:41:24.435Z,25.52
2022-09-18T15:43:51.952Z,25.51
2022-09-18T15:46:31.520Z,25.50
2022-09-18T15:49:00.958Z,25.46
2022-09-18T15:51:34.755Z,25.45
2022-09-18T15:54:22.406Z,25.45
2022-09-18T15:56:52.543Z,25.42
2022-09-18T15:59:35.760Z,25.39
2022-09-18T16:02:19.598Z,25.30
2022-09-18T16:04:47.141Z,25.33
2022-09-18T16:07:22.379Z,25.29
2022-09-18T16:09:51.006Z,25.21
2022-09-18T16:12:32.736Z,25.23
2022-09-18T16:15:09.882Z,25.19
2022-09-18T16:17:39.949Z,25.12
2022-09-18T16:20:38.752Z,25.05
2022-09-18T16:23:24.861Z,24.95
2022-09-18T16:26:13.319Z,24.84
2022-09-18T16:28:46.355Z,24.71
2022-09-18T16:31:16.989Z,24.58
2022-09-18T16:33:55.729Z,24.35
2022-09-18T16:36:36.899Z,24.22
2022-09-18T16:39:08.399Z,24.05
2022-09-18T16:41:36.791Z,23.86
2022-09-18T16:44:05.840Z,23.79
2022-09-18T16:46:56.132Z,23.70
2022-09-18T16:49:26.894Z,23.61
2022-09-18T16:51:58.043Z,23.58
2022-09-18T16:54:26.443Z,23.51
2022-09-18T16:56:57.972Z,23.52
2022-09-18T16:59:29.511Z,23.51
2022-09-18T17:02:04.230Z,23.49
2022-09-18T17:04:32.848Z,23.48
2022-09-18T17:07:00.978Z,23.41
2022-09-18T17:09:28.647Z,23.42
2022-09-18T17:11:56.587Z,23.37
2022-09-18T17:14:24.562Z,23.34
2022-09-18T17:16:52.505Z,23.32
2022-09-18T17:19:20.855Z,23.28
2022-09-18T17:21:48.487Z,23.24
2022-09-18T17:24:17.687Z,23.24
2022-09-18T17:26:45.274Z,23.24
2022-09-18T17:29:12.695Z,23.23
2022-09-18T17:31:40.305Z,23.19
2022-09-18T17:34:07.910Z,23.17
2022-09-18T17:36:37.993Z,23.16
2022-09-18T17:39:05.593Z,23.13
2022-09-18T17:41:33.867Z,23.08
2022-09-18T17:44:01.542Z,23.01
2022-09-18T17:46:29.071Z,22.99
2022-09-18T17:48:58.327Z,22.97
2022-09-18T17:51:28.948Z,22.92
2022-09-18T17:54:00.264Z,22.88
2022-09-18T17:56:30.190Z,22.78
2022-09-18T17:59:06.764Z,22.80
2022-09-18T18:01:37.776Z,22.76
2022-09-18T18:04:06.228Z,22.74
2022-09-18T18:06:34.724Z,22.72
2022-09-18T18:09:02.281Z,22.72
2022-09-18T18:11:29.887Z,22.73
2022-09-18T18:13:57.331Z,22.64
2022-09-18T18:16:28.855Z,22.72
2022-09-18T18:19:03.580Z,22.73
2022-09-18T18:21:32.858Z,22.73
2022-09-18T18:24:04.069Z,22.71
2022-09-18T18:26:31.942Z,22.71
2022-09-18T18:28:59.556Z,22.70
2022-09-18T18:31:31.773Z,22.72
2022-09-18T18:33:59.527Z,22.74
2022-09-18T18:36:31.744Z,22.77
2022-09-18T18:39:04.466Z,22.84
2022-09-18T18:41:33.833Z,22.89
2022-09-18T18:44:05.840Z,22.94
2022-09-18T18:46:36.543Z,22.97
2022-09-18T18:49:10.130Z,23.03
2022-09-18T18:51:47.860Z,23.07
2022-09-18T18:54:17.942Z,23.08
2022-09-18T18:56:46.625Z,23.06
2022-09-18T18:59:16.734Z,23.05
2022-09-18T19:01:47.812Z,23.11
2022-09-18T19:04:19.347Z,23.12
2022-09-18T19:06:49.095Z,23.07
2022-09-18T19:09:22.420Z,22.93
2022-09-18T19:11:53.122Z,22.92
2022-09-18T19:14:23.192Z,22.85
2022-09-18T19:16:51.966Z,22.80
2022-09-18T19:19:21.330Z,22.77
2022-09-18T19:21:48.816Z,22.75
2022-09-18T19:24:18.840Z,22.78
2022-09-18T19:26:48.073Z,22.83
2022-09-18T19:29:18.797Z,22.90
2022-09-18T19:31:47.432Z,22.95
2022-09-18T19:34:17.462Z,22.99
2022-09-18T19:36:47.397Z,22.99
2022-09-18T19:39:15.656Z,23.09
2022-09-18T19:41:55.531Z,23.13
2022-09-18T19:44:31.611Z,23.19
2022-09-18T19:47:20.659Z,23.24
2022-09-18T19:49:50.048Z,23.28
2022-09-18T19:52:20.255Z,23.31
2022-09-18T19:54:49.074Z,23.31
2022-09-18T19:57:16.567Z,23.36
2022-09-18T19:59:44.378Z,23.38
2022-09-18T20:02:20.448Z,23.41
2022-09-18T20:04:47.974Z,23.43
2022-09-18T20:07:16.458Z,23.46
2022-09-18T20:09:44.351Z,23.49
2022-09-18T20:12:13.027Z,23.46
2022-09-18T20:14:40.549Z,23.54
2022-09-18T20:17:08.499Z,23.53
2022-09-18T20:19:36.597Z,23.54
2022-09-18T20:22:04.413Z,23.60
2022-09-18T20:24:32.947Z,23.69
2022-09-18T20:27:01.414Z,23.83
2022-09-18T20:29:29.579Z,23.88
2022-09-18T20:31:58.365Z,23.92
2022-09-18T20:34:26.314Z,23.90
2022-09-18T20:36:55.100Z,23.77
2022-09-18T20:39:22.892Z,23.65
2022-09-18T20:41:51.385Z,23.57
2022-09-18T20:44:19.347Z,23.58
2022-09-18T20:46:46.853Z,23.53
2022-09-18T20:49:17.673Z,23.50
2022-09-18T20:51:46.208Z,23.45
2022-09-18T20:54:15.274Z,23.39
2022-09-18T20:56:44.690Z,23.32
2022-09-18T20:59:17.414Z,23.25
2022-09-18T21:01:47.144Z,23.25
2022-09-18T21:04:19.511Z,23.22
2022-09-18T21:06:56.677Z,23.21
2022-09-18T21:09:27.399Z,23.20
2022-09-18T21:11:57.039Z,23.20
2022-09-18T21:14:26.639Z,23.20
2022-09-18T21:16:56.449Z,23.21
2022-09-18T21:19:26.442Z,23.23
2022-09-18T21:21:54.354Z,23.25
2022-09-18T21:24:22.350Z,23.25
2022-09-18T21:26:50.579Z,23.25
2022-09-18T21:29:23.818Z,23.26
2022-09-18T21:31:54.421Z,23.27
2022-09-18T21:34:24.816Z,23.25
2022-09-18T21:36:56.731Z,23.21
2022-09-18T21:39:26.194Z,23.23
2022-09-18T21:41:55.924Z,23.18
2022-09-18T21:44:27.298Z,23.16
2022-09-18T21:47:00.086Z,23.11
2022-09-18T21:49:29.389Z,23.08
2022-09-18T21:52:03.764Z,23.04
2022-09-18T21:54:32.180Z,23.04
2022-09-18T21:57:00.567Z,23.01
2022-09-18T21:59:30.804Z,22.98
2022-09-18T22:01:59.313Z,22.95
2022-09-18T22:04:29.570Z,22.97
2022-09-18T22:06:58.975Z,22.95
2022-09-18T22:09:31.680Z,22.94
2022-09-18T22:12:01.500Z,22.91
2022-09-18T22:14:34.208Z,22.91
2022-09-18T22:17:04.842Z,22.90
2022-09-18T22:19:38.189Z,22.85
2022-09-18T22:22:09.222Z,22.81
2022-09-18T22:24:36.710Z,22.76
2022-09-18T22:27:08.850Z,22.68
2022-09-18T22:29:41.512Z,22.64
2022-09-18T22:32:11.078Z,22.59
2022-09-18T22:34:38.695Z,22.51
2022-09-18T22:37:06.224Z,22.48
2022-09-18T22:39:33.799Z,22.44
2022-09-18T22:42:02.095Z,22.42
2022-09-18T22:44:31.343Z,22.39
2022-09-18T22:46:58.849Z,22.38
2022-09-18T22:49:26.396Z,22.36
2022-09-18T22:51:53.853Z,22.34
2022-09-18T22:54:26.199Z,22.30
2022-09-18T22:56:54.605Z,22.22
2022-09-18T22:59:24.734Z,22.13
2022-09-18T23:01:58.489Z,22.08
2022-09-18T23:04:29.462Z,22.00
2022-09-18T23:06:59.479Z,21.97
2022-09-18T23:09:28.255Z,21.90
2022-09-18T23:11:56.495Z,21.89
2022-09-18T23:14:27.923Z,21.87
2022-09-18T23:16:57.025Z,21.84
2022-09-18T23:19:27.251Z,21.80
2022-09-18T23:21:55.797Z,21.78
2022-09-18T23:24:24.038Z,21.74
2022-09-18T23:26:53.157Z,21.70
2022-09-18T23:29:22.751Z,21.64
2022-09-18T23:31:55.408Z,21.59
2022-09-18T23:34:25.623Z,21.53
2022-09-18T23:36:55.023Z,21.46
2022-09-18T23:39:28.274Z,21.40
2022-09-18T23:41:57.411Z,21.33
2022-09-18T23:44:25.426Z,21.25
2022-09-18T23:46:53.015Z,21.19
2022-09-18T23:49:24.042Z,21.12
2022-09-18T23:51:54.243Z,21.05
2022-09-18T23:54:26.152Z,21.01
2022-09-18T23:56:54.297Z,20.97
2022-09-18T23:59:23.790Z,20.91
